sensor_id;sensor_type;location;lat;lon;timestamp;pressure;altitude;pressure_sealevel;temperature;humidity
9141;BME280;46330;50.822;7.126;2023-06-24T00:01:41;101781.91;;;18.44;92.95
9141;BME280;46330;50.822;7.126;2023-06-24T00:04:10;101784.19;;;18.28;93.73
9141;BME280;46330;50.822;7.126;2023-06-24T00:06:41;101781.72;;;18.24;94.32
9141;BME280;46330;50.822;7.126;2023-06-24T00:09:09;101784.59;;;18.16;94.58
9141;BME280;46330;50.822;7.126;2023-06-24T00:11:37;101785.81;;;18.06;94.65
9141;BME280;46330;50.822;7.126;2023-06-24T00:14:05;101791.06;;;18.08;95.09
9141;BME280;46330;50.822;7.126;2023-06-24T00:16:34;101786.66;;;18.08;94.61
9141;BME280;46330;50.822;7.126;2023-06-24T00:19:03;101791.19;;;18.03;94.90
9141;BME280;46330;50.822;7.126;2023-06-24T00:21:32;101790.50;;;17.98;95.42
9141;BME280;46330;50.822;7.126;2023-06-24T00:24:00;101786.34;;;17.90;95.99
9141;BME280;46330;50.822;7.126;2023-06-24T00:26:31;101782.94;;;17.86;96.16
9141;BME280;46330;50.822;7.126;2023-06-24T00:28:59;101780.47;;;17.80;96.70
9141;BME280;46330;50.822;7.126;2023-06-24T00:31:27;101769.03;;;17.78;96.84
9141;BME280;46330;50.822;7.126;2023-06-24T00:33:55;101780.69;;;17.72;97.40
9141;BME280;46330;50.822;7.126;2023-06-24T00:36:23;101778.91;;;17.75;97.66
9141;BME280;46330;50.822;7.126;2023-06-24T00:38:55;101774.22;;;17.83;96.93
9141;BME280;46330;50.822;7.126;2023-06-24T00:41:23;101774.22;;;17.83;96.92
9141;BME280;46330;50.822;7.126;2023-06-24T00:43:52;101773.53;;;17.76;96.14
9141;BME280;46330;50.822;7.126;2023-06-24T00:46:20;101780.28;;;17.57;97.70
9141;BME280;46330;50.822;7.126;2023-06-24T00:48:49;101778.53;;;17.57;97.25
9141;BME280;46330;50.822;7.126;2023-06-24T00:51:17;101777.00;;;17.47;97.44
9141;BME280;46330;50.822;7.126;2023-06-24T00:53:48;101784.06;;;17.48;97.89
9141;BME280;46330;50.822;7.126;2023-06-24T00:56:20;101777.84;;;17.49;97.99
9141;BME280;46330;50.822;7.126;2023-06-24T00:58:50;101792.16;;;17.42;98.25
9141;BME280;46330;50.822;7.126;2023-06-24T01:01:19;101793.06;;;17.41;98.24
9141;BME280;46330;50.822;7.126;2023-06-24T01:03:47;101796.97;;;17.28;98.88
9141;BME280;46330;50.822;7.126;2023-06-24T01:06:15;101790.06;;;17.24;99.47
9141;BME280;46330;50.822;7.126;2023-06-24T01:08:44;101793.47;;;17.28;99.15
9141;BME280;46330;50.822;7.126;2023-06-24T01:11:18;101792.09;;;17.14;99.49
9141;BME280;46330;50.822;7.126;2023-06-24T01:13:46;101782.75;;;17.01;100.00
9141;BME280;46330;50.822;7.126;2023-06-24T01:16:19;101781.06;;;16.99;100.00
9141;BME280;46330;50.822;7.126;2023-06-24T01:18:55;101774.25;;;16.90;100.00
9141;BME280;46330;50.822;7.126;2023-06-24T01:21:34;101775.25;;;16.86;100.00
9141;BME280;46330;50.822;7.126;2023-06-24T01:27:39;101790.41;;;16.80;100.00
9141;BME280;46330;50.822;7.126;2023-06-24T01:33:22;101776.31;;;16.79;100.00
9141;BME280;46330;50.822;7.126;2023-06-24T01:35:53;101782.50;;;16.78;100.00
9141;BME280;46330;50.822;7.126;2023-06-24T01:38:28;101779.28;;;16.67;100.00
9141;BME280;46330;50.822;7.126;2023-06-24T01:40:59;101778.50;;;16.63;100.00
9141;BME280;46330;50.822;7.126;2023-06-24T01:43:32;101781.22;;;16.60;100.00
9141;BME280;46330;50.822;7.126;2023-06-24T01:46:03;101779.44;;;16.61;100.00
9141;BME280;46330;50.822;7.126;2023-06-24T01:48:35;101776.81;;;16.61;100.00
9141;BME280;46330;50.822;7.126;2023-06-24T01:51:08;101780.53;;;16.51;100.00
9141;BME280;46330;50.822;7.126;2023-06-24T01:53:40;101774.25;;;16.56;100.00
9141;BME280;46330;50.822;7.126;2023-06-24T01:56:12;101771.81;;;16.49;100.00
9141;BME280;46330;50.822;7.126;2023-06-24T01:58:45;101780.59;;;16.49;100.00
9141;BME280;46330;50.822;7.126;2023-06-24T02:01:14;101782.31;;;16.50;100.00
9141;BME280;46330;50.822;7.126;2023-06-24T02:03:44;101781.50;;;16.48;100.00
9141;BME280;46330;50.822;7.126;2023-06-24T02:06:13;101776.53;;;16.36;100.00
9141;BME280;46330;50.822;7.126;2023-06-24T02:08:43;101779.91;;;16.41;100.00
9141;BME280;46330;50.822;7.126;2023-06-24T02:11:14;101781.56;;;16.45;100.00
9141;BME280;46330;50.822;7.126;2023-06-24T02:13:43;101778.03;;;16.46;100.00
9141;BME280;46330;50.822;7.126;2023-06-24T02:16:15;101775.63;;;16.37;100.00
9141;BME280;46330;50.822;7.126;2023-06-24T02:18:45;101781.66;;;16.41;100.00
9141;BME280;46330;50.822;7.126;2023-06-24T02:21:16;101772.44;;;16.23;100.00
9141;BME280;46330;50.822;7.126;2023-06-24T02:23:46;101767.97;;;16.27;100.00
9141;BME280;46330;50.822;7.126;2023-06-24T02:26:15;101772.44;;;16.23;100.00
9141;BME280;46330;50.822;7.126;2023-06-24T02:28:44;101771.78;;;16.13;100.00
9141;BME280;46330;50.822;7.126;2023-06-24T02:31:13;101772.88;;;16.06;100.00
9141;BME280;46330;50.822;7.126;2023-06-24T02:33:42;101772.88;;;16.06;100.00
9141;BME280;46330;50.822;7.126;2023-06-24T02:36:12;101770.25;;;16.05;100.00
9141;BME280;46330;50.822;7.126;2023-06-24T02:38:40;101782.34;;;16.13;100.00
9141;BME280;46330;50.822;7.126;2023-06-24T02:41:08;101776.28;;;16.10;100.00
9141;BME280;46330;50.822;7.126;2023-06-24T02:43:36;101774.50;;;16.10;100.00
9141;BME280;46330;50.822;7.126;2023-06-24T02:46:05;101777.34;;;16.03;100.00
9141;BME280;46330;50.822;7.126;2023-06-24T02:48:36;101773.84;;;16.02;100.00
9141;BME280;46330;50.822;7.126;2023-06-24T02:51:07;101777.56;;;15.94;100.00
9141;BME280;46330;50.822;7.126;2023-06-24T02:53:38;101777.50;;;15.97;100.00
9141;BME280;46330;50.822;7.126;2023-06-24T02:56:10;101781.09;;;15.93;100.00
9141;BME280;46330;50.822;7.126;2023-06-24T02:58:43;101778.41;;;15.94;100.00
9141;BME280;46330;50.822;7.126;2023-06-24T03:01:18;101781.13;;;15.91;100.00
9141;BME280;46330;50.822;7.126;2023-06-24T03:03:53;101783.00;;;15.86;100.00
9141;BME280;46330;50.822;7.126;2023-06-24T03:06:22;101785.56;;;15.91;100.00
9141;BME280;46330;50.822;7.126;2023-06-24T03:08:55;101780.22;;;15.92;100.00
9141;BME280;46330;50.822;7.126;2023-06-24T03:11:25;101782.03;;;15.90;100.00
9141;BME280;46330;50.822;7.126;2023-06-24T03:13:56;101784.69;;;15.89;100.00
9141;BME280;46330;50.822;7.126;2023-06-24T03:16:38;101783.94;;;15.84;100.00
9141;BME280;46330;50.822;7.126;2023-06-24T03:19:11;101791.84;;;15.84;100.00
9141;BME280;46330;50.822;7.126;2023-06-24T03:21:39;101791.00;;;15.82;100.00
9141;BME280;46330;50.822;7.126;2023-06-24T03:24:12;101791.88;;;15.82;100.00
9141;BME280;46330;50.822;7.126;2023-06-24T03:26:42;101793.69;;;15.80;100.00
9141;BME280;46330;50.822;7.126;2023-06-24T03:29:12;101788.63;;;15.71;100.00
9141;BME280;46330;50.822;7.126;2023-06-24T03:31:54;101790.31;;;15.74;100.00
9141;BME280;46330;50.822;7.126;2023-06-24T03:34:25;101798.31;;;15.71;100.00
9141;BME280;46330;50.822;7.126;2023-06-24T03:36:53;101797.53;;;15.66;100.00
9141;BME280;46330;50.822;7.126;2023-06-24T03:39:25;101797.34;;;15.75;100.00
9141;BME280;46330;50.822;7.126;2023-06-24T03:41:53;101785.78;;;15.80;100.00
9141;BME280;46330;50.822;7.126;2023-06-24T03:44:21;101786.66;;;15.79;100.00
9141;BME280;46330;50.822;7.126;2023-06-24T03:46:49;101777.94;;;15.76;100.00
9141;BME280;46330;50.822;7.126;2023-06-24T03:49:17;101785.13;;;15.71;100.00
9141;BME280;46330;50.822;7.126;2023-06-24T03:51:45;101785.19;;;15.66;100.00
9141;BME280;46330;50.822;7.126;2023-06-24T03:54:13;101794.78;;;15.72;100.00
9141;BME280;46330;50.822;7.126;2023-06-24T03:56:44;101785.13;;;15.71;100.00
9141;BME280;46330;50.822;7.126;2023-06-24T03:59:12;101790.44;;;15.69;100.00
9141;BME280;46330;50.822;7.126;2023-06-24T04:01:40;101792.06;;;15.75;100.00
9141;BME280;46330;50.822;7.126;2023-06-24T04:04:08;101791.19;;;15.74;100.00
9141;BME280;46330;50.822;7.126;2023-06-24T04:06:36;101793.03;;;15.71;100.00
9141;BME280;46330;50.822;7.126;2023-06-24T04:09:04;101792.88;;;15.78;100.00
9141;BME280;46330;50.822;7.126;2023-06-24T04:11:33;101793.56;;;15.86;100.00
9141;BME280;46330;50.822;7.126;2023-06-24T04:14:02;101798.91;;;15.83;100.00
9141;BME280;46330;50.822;7.126;2023-06-24T04:16:33;101803.97;;;15.92;100.00
9141;BME280;46330;50.822;7.126;2023-06-24T04:19:01;101809.38;;;15.86;100.00
9141;BME280;46330;50.822;7.126;2023-06-24T04:21:29;101804.94;;;15.88;100.00
9141;BME280;46330;50.822;7.126;2023-06-24T04:23:57;101810.94;;;15.95;100.00
9141;BME280;46330;50.822;7.126;2023-06-24T04:26:26;101809.16;;;15.97;100.00
9141;BME280;46330;50.822;7.126;2023-06-24T04:28:54;101812.63;;;15.97;100.00
9141;BME280;46330;50.822;7.126;2023-06-24T04:31:24;101820.41;;;16.05;100.00
9141;BME280;46330;50.822;7.126;2023-06-24T04:33:52;101813.34;;;16.05;100.00
9141;BME280;46330;50.822;7.126;2023-06-24T04:36:20;101820.25;;;16.12;100.00
9141;BME280;46330;50.822;7.126;2023-06-24T04:38:49;101822.72;;;16.19;100.00
9141;BME280;46330;50.822;7.126;2023-06-24T04:41:17;101820.84;;;16.22;99.58
9141;BME280;46330;50.822;7.126;2023-06-24T04:43:46;101821.56;;;16.30;99.11
9141;BME280;46330;50.822;7.126;2023-06-24T04:46:14;101823.91;;;16.42;98.92
9141;BME280;46330;50.822;7.126;2023-06-24T04:48:44;101825.22;;;16.61;97.30
9141;BME280;46330;50.822;7.126;2023-06-24T04:51:12;101827.13;;;16.53;96.83
9141;BME280;46330;50.822;7.126;2023-06-24T04:53:40;101824.25;;;16.65;96.38
9141;BME280;46330;50.822;7.126;2023-06-24T04:56:08;101828.50;;;16.71;95.98
9141;BME280;46330;50.822;7.126;2023-06-24T04:58:36;101833.72;;;17.06;94.36
9141;BME280;46330;50.822;7.126;2023-06-24T05:01:04;101832.53;;;17.18;93.03
9141;BME280;46330;50.822;7.126;2023-06-24T05:03:31;101829.22;;;17.41;92.22
9141;BME280;46330;50.822;7.126;2023-06-24T05:06:01;101838.38;;;17.61;90.44
9141;BME280;46330;50.822;7.126;2023-06-24T05:08:29;101836.78;;;17.56;90.85
9141;BME280;46330;50.822;7.126;2023-06-24T05:10:56;101843.44;;;17.69;89.04
9141;BME280;46330;50.822;7.126;2023-06-24T05:13:26;101842.44;;;17.73;88.63
9141;BME280;46330;50.822;7.126;2023-06-24T05:15:55;101838.53;;;17.86;88.12
9141;BME280;46330;50.822;7.126;2023-06-24T05:18:22;101835.88;;;17.86;88.19
9141;BME280;46330;50.822;7.126;2023-06-24T05:20:51;101830.44;;;18.18;87.37
9141;BME280;46330;50.822;7.126;2023-06-24T05:23:20;101834.63;;;18.25;85.42
9141;BME280;46330;50.822;7.126;2023-06-24T05:25:48;101837.84;;;18.63;84.00
9141;BME280;46330;50.822;7.126;2023-06-24T05:28:16;101834.00;;;18.71;83.63
9141;BME280;46330;50.822;7.126;2023-06-24T05:30:44;101834.47;;;18.84;83.47
9141;BME280;46330;50.822;7.126;2023-06-24T05:33:12;101835.66;;;19.25;80.50
9141;BME280;46330;50.822;7.126;2023-06-24T05:35:42;101839.78;;;19.33;79.71
9141;BME280;46330;50.822;7.126;2023-06-24T05:38:11;101837.06;;;19.35;80.36
9141;BME280;46330;50.822;7.126;2023-06-24T05:40:40;101830.56;;;19.45;79.17
9141;BME280;46330;50.822;7.126;2023-06-24T05:43:08;101830.66;;;19.42;79.31
9141;BME280;46330;50.822;7.126;2023-06-24T05:45:37;101829.44;;;19.97;76.94
9141;BME280;46330;50.822;7.126;2023-06-24T05:48:05;101832.97;;;20.63;75.30
9141;BME280;46330;50.822;7.126;2023-06-24T05:50:33;101833.13;;;20.38;74.86
9141;BME280;46330;50.822;7.126;2023-06-24T05:53:01;101837.19;;;20.47;74.45
9141;BME280;46330;50.822;7.126;2023-06-24T05:55:29;101836.84;;;20.76;73.62
9141;BME280;46330;50.822;7.126;2023-06-24T05:57:59;101840.38;;;20.97;73.09
9141;BME280;46330;50.822;7.126;2023-06-24T06:00:26;101837.53;;;21.01;72.99
9141;BME280;46330;50.822;7.126;2023-06-24T06:02:55;101833.72;;;20.86;72.54
9141;BME280;46330;50.822;7.126;2023-06-24T06:05:23;101841.84;;;21.04;72.34
9141;BME280;46330;50.822;7.126;2023-06-24T06:07:50;101841.59;;;21.69;70.22
9141;BME280;46330;50.822;7.126;2023-06-24T06:10:20;101845.47;;;21.80;68.69
9141;BME280;46330;50.822;7.126;2023-06-24T06:12:48;101848.38;;;22.32;67.92
9141;BME280;46330;50.822;7.126;2023-06-24T06:15:17;101849.16;;;22.70;66.73
9141;BME280;46330;50.822;7.126;2023-06-24T06:17:45;101848.41;;;22.49;65.29
9141;BME280;46330;50.822;7.126;2023-06-24T06:20:13;101853.25;;;22.41;67.04
9141;BME280;46330;50.822;7.126;2023-06-24T06:22:41;101844.94;;;22.66;66.40
9141;BME280;46330;50.822;7.126;2023-06-24T06:25:09;101846.13;;;23.29;62.13
9141;BME280;46330;50.822;7.126;2023-06-24T06:27:37;101844.66;;;23.39;62.85
9141;BME280;46330;50.822;7.126;2023-06-24T06:30:07;101851.69;;;23.07;62.40
9141;BME280;46330;50.822;7.126;2023-06-24T06:32:36;101850.44;;;23.64;62.38
9141;BME280;46330;50.822;7.126;2023-06-24T06:35:05;101851.88;;;24.02;60.29
9141;BME280;46330;50.822;7.126;2023-06-24T06:37:33;101845.69;;;24.18;58.96
9141;BME280;46330;50.822;7.126;2023-06-24T06:40:01;101857.06;;;24.37;57.39
9141;BME280;46330;50.822;7.126;2023-06-24T06:42:29;101850.25;;;24.47;57.59
9141;BME280;46330;50.822;7.126;2023-06-24T06:44:57;101855.22;;;24.98;56.03
9141;BME280;46330;50.822;7.126;2023-06-24T06:47:26;101864.34;;;25.10;55.26
9141;BME280;46330;50.822;7.126;2023-06-24T06:49:55;101865.38;;;24.78;56.29
9141;BME280;46330;50.822;7.126;2023-06-24T06:52:23;101853.44;;;25.13;55.21
9141;BME280;46330;50.822;7.126;2023-06-24T06:54:51;101857.44;;;25.64;53.49
9141;BME280;46330;50.822;7.126;2023-06-24T06:57:19;101860.00;;;26.08;52.79
9141;BME280;46330;50.822;7.126;2023-06-24T06:59:47;101855.75;;;26.59;50.24
9141;BME280;46330;50.822;7.126;2023-06-24T07:02:16;101861.16;;;27.23;49.56
9141;BME280;46330;50.822;7.126;2023-06-24T07:04:44;101854.06;;;27.35;48.00
9141;BME280;46330;50.822;7.126;2023-06-24T07:07:15;101860.66;;;27.44;48.91
9141;BME280;46330;50.822;7.126;2023-06-24T07:09:43;101856.41;;;27.90;46.93
9141;BME280;46330;50.822;7.126;2023-06-24T07:12:13;101866.34;;;28.26;45.15
9141;BME280;46330;50.822;7.126;2023-06-24T07:14:41;101872.34;;;28.66;45.46
9141;BME280;46330;50.822;7.126;2023-06-24T07:17:09;101870.06;;;29.07;42.96
9141;BME280;46330;50.822;7.126;2023-06-24T07:19:37;101873.75;;;29.17;42.44
9141;BME280;46330;50.822;7.126;2023-06-24T07:22:05;101874.94;;;29.70;43.11
9141;BME280;46330;50.822;7.126;2023-06-24T07:24:34;101874.22;;;29.68;41.99
9141;BME280;46330;50.822;7.126;2023-06-24T07:27:02;101878.38;;;29.39;42.45
9141;BME280;46330;50.822;7.126;2023-06-24T07:29:30;101871.19;;;28.81;43.49
9141;BME280;46330;50.822;7.126;2023-06-24T07:31:58;101876.94;;;29.22;44.04
9141;BME280;46330;50.822;7.126;2023-06-24T07:34:26;101878.66;;;29.92;41.96
9141;BME280;46330;50.822;7.126;2023-06-24T07:36:54;101878.00;;;30.21;41.16
9141;BME280;46330;50.822;7.126;2023-06-24T07:39:23;101873.72;;;30.19;41.17
9141;BME280;46330;50.822;7.126;2023-06-24T07:41:52;101869.81;;;29.78;42.81
9141;BME280;46330;50.822;7.126;2023-06-24T07:44:20;101869.28;;;29.29;44.17
9141;BME280;46330;50.822;7.126;2023-06-24T07:46:48;101870.00;;;28.96;43.50
9141;BME280;46330;50.822;7.126;2023-06-24T07:49:17;101872.66;;;29.88;41.46
9141;BME280;46330;50.822;7.126;2023-06-24T07:51:46;101870.25;;;30.71;40.09
9141;BME280;46330;50.822;7.126;2023-06-24T07:54:15;101873.72;;;30.19;40.33
9141;BME280;46330;50.822;7.126;2023-06-24T07:56:43;101869.56;;;30.89;39.80
9141;BME280;46330;50.822;7.126;2023-06-24T07:59:12;101865.63;;;30.62;39.91
9141;BME280;46330;50.822;7.126;2023-06-24T08:01:40;101864.41;;;29.56;41.61
9141;BME280;46330;50.822;7.126;2023-06-24T08:04:08;101864.91;;;29.83;41.73
9141;BME280;46330;50.822;7.126;2023-06-24T08:06:36;101862.47;;;30.57;39.04
9141;BME280;46330;50.822;7.126;2023-06-24T08:09:04;101868.09;;;31.38;37.46
9141;BME280;46330;50.822;7.126;2023-06-24T08:11:32;101863.56;;;31.69;37.42
9141;BME280;46330;50.822;7.126;2023-06-24T08:14:00;101865.84;;;31.73;36.94
9141;BME280;46330;50.822;7.126;2023-06-24T08:16:29;101867.91;;;30.34;39.60
9141;BME280;46330;50.822;7.126;2023-06-24T08:18:57;101867.72;;;30.90;38.93
9141;BME280;46330;50.822;7.126;2023-06-24T08:21:25;101862.13;;;31.23;37.96
9141;BME280;46330;50.822;7.126;2023-06-24T08:23:53;101859.81;;;30.23;40.29
9141;BME280;46330;50.822;7.126;2023-06-24T08:29:35;101864.75;;;30.72;39.35
9141;BME280;46330;50.822;7.126;2023-06-24T08:32:06;101852.66;;;31.29;37.75
9141;BME280;46330;50.822;7.126;2023-06-24T08:34:34;101856.09;;;32.41;35.32
9141;BME280;46330;50.822;7.126;2023-06-24T08:37:02;101854.44;;;32.69;34.79
9141;BME280;46330;50.822;7.126;2023-06-24T08:39:30;101854.03;;;32.14;35.42
9141;BME280;46330;50.822;7.126;2023-06-24T08:41:58;101848.22;;;32.47;35.94
9141;BME280;46330;50.822;7.126;2023-06-24T08:44:27;101845.16;;;32.03;36.71
9141;BME280;46330;50.822;7.126;2023-06-24T08:46:55;101848.25;;;31.98;36.53
9141;BME280;46330;50.822;7.126;2023-06-24T08:49:29;101857.94;;;32.31;35.48
9141;BME280;46330;50.822;7.126;2023-06-24T08:52:03;101857.91;;;33.36;33.73
9141;BME280;46330;50.822;7.126;2023-06-24T08:54:35;101849.66;;;33.75;32.99
9141;BME280;46330;50.822;7.126;2023-06-24T08:57:03;101845.31;;;34.19;33.22
9141;BME280;46330;50.822;7.126;2023-06-24T08:59:34;101844.38;;;34.28;33.79
9141;BME280;46330;50.822;7.126;2023-06-24T09:02:03;101848.59;;;34.75;32.11
9141;BME280;46330;50.822;7.126;2023-06-24T09:04:33;101849.41;;;33.59;33.26
9141;BME280;46330;50.822;7.126;2023-06-24T09:07:01;101848.84;;;32.99;34.01
9141;BME280;46330;50.822;7.126;2023-06-24T09:09:42;101853.97;;;33.12;33.83
9141;BME280;46330;50.822;7.126;2023-06-24T09:12:12;101841.63;;;31.72;35.64
9141;BME280;46330;50.822;7.126;2023-06-24T09:14:47;101841.66;;;33.73;32.90
9141;BME280;46330;50.822;7.126;2023-06-24T09:17:16;101841.50;;;34.12;31.38
9141;BME280;46330;50.822;7.126;2023-06-24T09:19:45;101842.34;;;33.75;32.19
9141;BME280;46330;50.822;7.126;2023-06-24T09:22:13;101836.25;;;32.98;33.17
9141;BME280;46330;50.822;7.126;2023-06-24T09:24:45;101833.28;;;32.91;33.48
9141;BME280;46330;50.822;7.126;2023-06-24T09:27:14;101827.13;;;34.19;32.45
9141;BME280;46330;50.822;7.126;2023-06-24T09:29:42;101822.75;;;33.44;32.98
9141;BME280;46330;50.822;7.126;2023-06-24T09:32:11;101815.13;;;33.67;32.25
9141;BME280;46330;50.822;7.126;2023-06-24T09:34:39;101819.56;;;33.03;33.27
9141;BME280;46330;50.822;7.126;2023-06-24T09:37:08;101815.72;;;33.15;33.92
9141;BME280;46330;50.822;7.126;2023-06-24T09:39:39;101812.75;;;33.82;31.76
9141;BME280;46330;50.822;7.126;2023-06-24T09:42:08;101820.41;;;33.59;32.32
9141;BME280;46330;50.822;7.126;2023-06-24T09:44:38;101808.69;;;33.31;32.80
9141;BME280;46330;50.822;7.126;2023-06-24T09:47:06;101808.94;;;32.63;32.90
9141;BME280;46330;50.822;7.126;2023-06-24T09:49:34;101805.94;;;34.23;31.35
9141;BME280;46330;50.822;7.126;2023-06-24T09:52:04;101805.06;;;33.40;34.09
9141;BME280;46330;50.822;7.126;2023-06-24T09:54:36;101796.13;;;33.67;32.67
9141;BME280;46330;50.822;7.126;2023-06-24T09:57:05;101797.09;;;33.66;31.46
9141;BME280;46330;50.822;7.126;2023-06-24T09:59:39;101791.66;;;34.74;29.32
9141;BME280;46330;50.822;7.126;2023-06-24T10:02:13;101786.72;;;35.88;28.41
9141;BME280;46330;50.822;7.126;2023-06-24T10:04:43;101788.63;;;35.28;29.23
9141;BME280;46330;50.822;7.126;2023-06-24T10:07:13;101785.53;;;34.72;30.66
9141;BME280;46330;50.822;7.126;2023-06-24T10:09:43;101791.06;;;34.88;30.64
9141;BME280;46330;50.822;7.126;2023-06-24T10:12:12;101787.81;;;35.28;30.09
9141;BME280;46330;50.822;7.126;2023-06-24T10:14:40;101787.25;;;33.92;30.77
9141;BME280;46330;50.822;7.126;2023-06-24T10:17:08;101782.72;;;34.28;31.12
9141;BME280;46330;50.822;7.126;2023-06-24T10:19:41;101781.38;;;33.97;30.74
9141;BME280;46330;50.822;7.126;2023-06-24T10:22:09;101775.53;;;35.24;28.62
9141;BME280;46330;50.822;7.126;2023-06-24T10:24:39;101776.13;;;35.43;28.45
9141;BME280;46330;50.822;7.126;2023-06-24T10:27:14;101771.81;;;34.81;28.76
9141;BME280;46330;50.822;7.126;2023-06-24T10:29:45;101771.03;;;35.90;28.14
9141;BME280;46330;50.822;7.126;2023-06-24T10:32:13;101774.56;;;35.33;29.67
9141;BME280;46330;50.822;7.126;2023-06-24T10:34:42;101759.81;;;34.48;29.34
9141;BME280;46330;50.822;7.126;2023-06-24T10:37:13;101760.56;;;34.76;29.41
9141;BME280;46330;50.822;7.126;2023-06-24T10:39:49;101761.41;;;34.16;30.45
9141;BME280;46330;50.822;7.126;2023-06-24T10:42:39;101755.22;;;33.96;30.20
9141;BME280;46330;50.822;7.126;2023-06-24T10:45:17;101749.41;;;34.44;30.07
9141;BME280;46330;50.822;7.126;2023-06-24T10:47:46;101749.22;;;35.40;28.39
9141;BME280;46330;50.822;7.126;2023-06-24T10:50:19;101746.50;;;35.74;27.89
9141;BME280;46330;50.822;7.126;2023-06-24T10:52:48;101739.00;;;35.68;28.24
9141;BME280;46330;50.822;7.126;2023-06-24T10:55:21;101738.81;;;34.15;30.29
9141;BME280;46330;50.822;7.126;2023-06-24T10:57:51;101730.56;;;35.45;27.80
9141;BME280;46330;50.822;7.126;2023-06-24T11:00:20;101736.19;;;36.91;25.54
9141;BME280;46330;50.822;7.126;2023-06-24T11:02:48;101740.44;;;36.93;25.99
9141;BME280;46330;50.822;7.126;2023-06-24T11:05:17;101734.47;;;37.92;25.46
9141;BME280;46330;50.822;7.126;2023-06-24T11:07:45;101736.81;;;38.17;23.96
9141;BME280;46330;50.822;7.126;2023-06-24T11:10:14;101717.22;;;37.83;25.94
9141;BME280;46330;50.822;7.126;2023-06-24T11:12:43;101716.78;;;36.78;26.14
9141;BME280;46330;50.822;7.126;2023-06-24T11:15:14;101719.06;;;35.26;28.13
9141;BME280;46330;50.822;7.126;2023-06-24T11:17:42;101729.06;;;36.65;25.25
9141;BME280;46330;50.822;7.126;2023-06-24T11:20:11;101718.22;;;35.67;26.83
9141;BME280;46330;50.822;7.126;2023-06-24T11:22:41;101702.91;;;35.24;27.80
9141;BME280;46330;50.822;7.126;2023-06-24T11:25:14;101708.88;;;35.28;28.18
9141;BME280;46330;50.822;7.126;2023-06-24T11:27:43;101704.31;;;35.36;27.53
9141;BME280;46330;50.822;7.126;2023-06-24T11:30:12;101700.75;;;35.36;28.80
9141;BME280;46330;50.822;7.126;2023-06-24T11:32:43;101700.63;;;35.53;27.15
9141;BME280;46330;50.822;7.126;2023-06-24T11:35:12;101694.88;;;35.15;27.54
9141;BME280;46330;50.822;7.126;2023-06-24T11:37:42;101702.69;;;36.18;26.82
9141;BME280;46330;50.822;7.126;2023-06-24T11:40:12;101704.72;;;36.32;26.36
9141;BME280;46330;50.822;7.126;2023-06-24T11:42:43;101698.13;;;34.92;27.60
9141;BME280;46330;50.822;7.126;2023-06-24T11:45:12;101691.19;;;35.82;26.31
9141;BME280;46330;50.822;7.126;2023-06-24T11:47:44;101677.66;;;35.56;26.55
9141;BME280;46330;50.822;7.126;2023-06-24T11:50:12;101693.66;;;36.57;25.75
9141;BME280;46330;50.822;7.126;2023-06-24T11:52:41;101690.53;;;36.69;25.69
9141;BME280;46330;50.822;7.126;2023-06-24T11:55:16;101689.88;;;36.50;24.53
9141;BME280;46330;50.822;7.126;2023-06-24T11:57:52;101673.13;;;35.81;26.29
9141;BME280;46330;50.822;7.126;2023-06-24T12:00:21;101671.44;;;34.62;27.77
9141;BME280;46330;50.822;7.126;2023-06-24T12:02:52;101671.88;;;35.51;25.82
9141;BME280;46330;50.822;7.126;2023-06-24T12:05:23;101674.72;;;36.48;25.54
9141;BME280;46330;50.822;7.126;2023-06-24T12:07:57;101661.63;;;35.45;26.94
9141;BME280;46330;50.822;7.126;2023-06-24T12:10:26;101657.97;;;35.78;26.26
9141;BME280;46330;50.822;7.126;2023-06-24T12:12:56;101660.88;;;37.59;23.82
9141;BME280;46330;50.822;7.126;2023-06-24T12:15:24;101653.44;;;37.06;24.14
9141;BME280;46330;50.822;7.126;2023-06-24T12:17:53;101657.91;;;35.54;25.47
9141;BME280;46330;50.822;7.126;2023-06-24T12:20:22;101653.25;;;34.01;27.98
9141;BME280;46330;50.822;7.126;2023-06-24T12:22:52;101654.34;;;33.73;28.21
9141;BME280;46330;50.822;7.126;2023-06-24T12:25:20;101641.22;;;34.22;28.20
9141;BME280;46330;50.822;7.126;2023-06-24T12:27:49;101645.75;;;35.24;25.83
9141;BME280;46330;50.822;7.126;2023-06-24T12:30:17;101644.22;;;35.80;26.16
9141;BME280;46330;50.822;7.126;2023-06-24T12:32:46;101643.06;;;35.40;25.19
9141;BME280;46330;50.822;7.126;2023-06-24T12:35:16;101641.97;;;35.67;26.51
9141;BME280;46330;50.822;7.126;2023-06-24T12:37:44;101639.84;;;35.45;26.69
9141;BME280;46330;50.822;7.126;2023-06-24T12:40:12;101637.63;;;34.90;27.55
9141;BME280;46330;50.822;7.126;2023-06-24T12:42:40;101645.09;;;35.30;26.16
9141;BME280;46330;50.822;7.126;2023-06-24T12:45:08;101642.50;;;36.03;24.59
9141;BME280;46330;50.822;7.126;2023-06-24T12:47:36;101632.75;;;35.52;25.19
9141;BME280;46330;50.822;7.126;2023-06-24T12:50:05;101639.47;;;35.90;24.97
9141;BME280;46330;50.822;7.126;2023-06-24T12:52:39;101643.22;;;36.21;24.76
9141;BME280;46330;50.822;7.126;2023-06-24T12:55:07;101638.09;;;36.42;24.83
9141;BME280;46330;50.822;7.126;2023-06-24T12:57:35;101631.22;;;35.07;26.77
9141;BME280;46330;50.822;7.126;2023-06-24T13:00:05;101641.69;;;36.19;26.66
9141;BME280;46330;50.822;7.126;2023-06-24T13:02:33;101632.34;;;35.31;26.29
9141;BME280;46330;50.822;7.126;2023-06-24T13:05:01;101626.13;;;35.63;26.25
9141;BME280;46330;50.822;7.126;2023-06-24T13:07:30;101633.06;;;34.99;27.67
9141;BME280;46330;50.822;7.126;2023-06-24T13:09:59;101629.19;;;35.59;27.29
9141;BME280;46330;50.822;7.126;2023-06-24T13:12:28;101637.28;;;35.35;26.74
9141;BME280;46330;50.822;7.126;2023-06-24T13:14:56;101624.38;;;35.45;25.96
9141;BME280;46330;50.822;7.126;2023-06-24T13:17:25;101627.31;;;34.25;26.19
9141;BME280;46330;50.822;7.126;2023-06-24T13:19:53;101625.84;;;36.06;25.09